Time,TemperatureF,DewpointF,PressureIn,WindDirection,WindDirectionDegrees,WindSpeedMPH,WindSpeedGustMPH,Humidity,HourlyPrecipIn,Conditions,Clouds,dailyrainin,SoftwareType,DateUTC
2013-03-27 00:00:00,33.0,22.1,29.51,NNW,348,0.0,0.0,64,0.00,CLR,SCT,0.00,WeatherDisplay:10.37,2013-03-27 04:00:00,
2013-03-27 00:05:00,32.8,22.3,29.51,NNW,348,0.0,0.0,65,0.00,CLR,SCT,0.00,WeatherDisplay:10.37,2013-03-27 04:05:00,
2013-03-27 00:10:00,32.7,22.2,29.51,NNW,348,0.0,0.0,65,0.00,CLR,SCT,0.00,WeatherDisplay:10.37,2013-03-27 04:10:00,
2013-03-27 00:15:00,32.6,22.1,29.51,NNW,348,0.0,0.0,65,0.00,CLR,SCT,0.00,WeatherDisplay:10.37,2013-03-27 04:15:00,
2013-03-27 00:20:00,32.5,22.4,29.51,NNW,348,0.0,0.0,66,0.00,CLR,SCT,0.00,WeatherDisplay:10.37,2013-03-27 04:20:00,
2013-03-27 00:25:00,32.5,22.4,29.51,NNW,338,0.5,2.3,66,0.00,CLR,SCT,0.00,WeatherDisplay:10.37,2013-03-27 04:25:00,
2013-03-27 00:30:00,32.4,22.3,29.51,NNW,339,0.0,0.0,66,0.00,CLR,SCT,0.00,WeatherDisplay:10.37,2013-03-27 04:30:00,
2013-03-27 00:35:00,32.4,22.3,29.51,NNW,339,0.0,1.1,66,0.00,CLR,SCT,0.00,WeatherDisplay:10.37,2013-03-27 04:35:00,
2013-03-27 00:40:00,32.2,22.1,29.51,NNW,339,0.0,0.0,66,0.00,CLR,SCT,0.00,WeatherDisplay:10.37,2013-03-27 04:40:00,
2013-03-27 00:45:00,32.0,22.3,29.51,NNW,339,0.0,0.0,67,0.00,CLR,SCT,0.00,WeatherDisplay:10.37,2013-03-27 04:45:00,
2013-03-27 00:50:00,32.0,21.9,29.52,NNW,339,0.0,0.0,66,0.00,CLR,SCT,0.00,WeatherDisplay:10.37,2013-03-27 04:50:00,
2013-03-27 00:55:00,32.0,21.9,29.52,NNW,339,0.0,1.1,66,0.00,CLR,SCT,0.00,WeatherDisplay:10.37,2013-03-27 04:55:00,
2013-03-27 01:00:00,32.0,21.9,29.52,NNW,339,0.0,0.0,66,0.00,CLR,SCT,0.00,WeatherDisplay:10.37,2013-03-27 05:00:00,
2013-03-27 01:05:00,32.0,21.9,29.52,NNW,339,0.0,0.0,66,0.00,CLR,SCT,0.00,WeatherDisplay:10.37,2013-03-27 05:05:00,
2013-03-27 01:10:00,32.1,21.7,29.52,NNW,340,0.1,1.1,65,0.00,CLR,SCT,0.00,WeatherDisplay:10.37,2013-03-27 05:10:00,
2013-03-27 01:15:00,32.2,21.7,29.52,NNW,340,0.7,2.3,65,0.00,CLR,SCT,0.00,WeatherDisplay:10.37,2013-03-27 05:15:00,
2013-03-27 01:20:00,32.4,21.9,29.52,NNW,340,0.5,2.3,65,0.00,CLR,SCT,0.00,WeatherDisplay:10.37,2013-03-27 05:20:00,
2013-03-27 01:25:00,32.8,22.0,29.52,NNW,340,1.7,3.5,64,0.00,CLR,SCT,0.00,WeatherDisplay:10.37,2013-03-27 05:25:00,
2013-03-27 01:30:00,33.0,21.8,29.52,NNW,340,0.6,2.3,63,0.00,CLR,SCT,0.00,WeatherDisplay:10.37,2013-03-27 05:30:00,
2013-03-27 01:35:00,32.9,22.0,29.52,NNW,340,0.6,1.1,64,0.00,CLR,SCT,0.00,WeatherDisplay:10.37,2013-03-27 05:35:00,
2013-03-27 01:40:00,32.7,21.9,29.52,NNW,331,0.4,1.1,64,0.00,CLR,SCT,0.00,WeatherDisplay:10.37,2013-03-27 05:40:00,
2013-03-27 01:45:00,32.5,21.7,29.52,NNW,331,0.1,1.1,64,0.00,CLR,SCT,0.00,WeatherDisplay:10.37,2013-03-27 05:45:00,
2013-03-27 01:50:00,32.3,21.8,29.52,NNW,331,0.5,1.1,65,0.00,CLR,SCT,0.00,WeatherDisplay:10.37,2013-03-27 05:50:00,
2013-03-27 01:55:00,32.1,21.7,29.52,NNW,331,0.5,1.1,65,0.00,CLR,SCT,0.00,WeatherDisplay:10.37,2013-03-27 05:55:00,
2013-03-27 02:00:00,32.0,21.6,29.52,NW,310,1.3,3.5,65,0.00,CLR,SCT,0.00,WeatherDisplay:10.37,2013-03-27 06:00:00,
2013-03-27 02:05:00,31.9,21.5,29.52,NW,310,0.8,2.3,65,0.00,CLR,SCT,0.00,WeatherDisplay:10.37,2013-03-27 06:05:00,
2013-03-27 02:10:00,31.9,21.5,29.52,NW,310,1.0,2.3,65,0.00,CLR,SCT,0.00,WeatherDisplay:10.37,2013-03-27 06:10:00,
2013-03-27 02:15:00,31.7,21.3,29.52,NNW,346,0.2,1.1,65,0.00,CLR,SCT,0.00,WeatherDisplay:10.37,2013-03-27 06:15:00,
2013-03-27 02:20:00,31.6,21.2,29.52,NNE,16,0.6,3.5,65,0.00,CLR,SCT,0.00,WeatherDisplay:10.37,2013-03-27 06:20:00,
2013-03-27 02:25:00,31.6,21.2,29.52,North,360,0.1,1.1,65,0.00,CLR,SCT,0.00,WeatherDisplay:10.37,2013-03-27 06:25:00,
2013-03-27 02:30:00,31.3,21.3,29.52,NNE,19,1.2,2.3,66,0.00,CLR,SCT,0.00,WeatherDisplay:10.37,2013-03-27 06:30:00,
2013-03-27 02:35:00,31.2,20.8,29.52,NNE,17,2.4,3.5,65,0.00,CLR,SCT,0.00,WeatherDisplay:10.37,2013-03-27 06:35:00,
2013-03-27 02:40:00,31.4,21.0,29.52,North,350,0.7,1.1,65,0.00,CLR,SCT,0.00,WeatherDisplay:10.37,2013-03-27 06:40:00,
2013-03-27 02:45:00,31.5,20.7,29.52,NNW,333,1.5,4.6,64,0.00,CLR,SCT,0.00,WeatherDisplay:10.37,2013-03-27 06:45:00,
2013-03-27 02:50:00,31.7,20.9,29.52,NNW,328,0.4,3.5,64,0.00,CLR,SCT,0.00,WeatherDisplay:10.37,2013-03-27 06:50:00,
2013-03-27 02:55:00,31.6,20.8,29.52,NNW,329,0.5,2.3,64,0.00,CLR,SCT,0.00,WeatherDisplay:10.37,2013-03-27 06:55:00,
2013-03-27 03:00:00,31.6,20.8,29.52,NNW,329,0.7,2.3,64,0.00,CLR,SCT,0.00,WeatherDisplay:10.37,2013-03-27 07:00:00,
2013-03-27 03:05:00,31.6,20.8,29.52,NW,316,0.9,3.5,64,0.00,CLR,SCT,0.00,WeatherDisplay:10.37,2013-03-27 07:05:00,
2013-03-27 03:10:00,31.5,20.7,29.52,NW,317,1.2,3.5,64,0.00,CLR,SCT,0.00,WeatherDisplay:10.37,2013-03-27 07:10:00,
2013-03-27 03:15:00,31.4,20.6,29.52,NNW,341,0.0,0.0,64,0.00,CLR,SCT,0.00,WeatherDisplay:10.37,2013-03-27 07:15:00,
2013-03-27 03:20:00,31.3,20.5,29.52,North,5,0.7,1.1,64,0.00,CLR,SCT,0.00,WeatherDisplay:10.37,2013-03-27 07:20:00,
2013-03-27 03:25:00,31.1,20.7,29.52,North,5,0.0,1.1,65,0.00,CLR,SCT,0.00,WeatherDisplay:10.37,2013-03-27 07:25:00,
2013-03-27 03:30:00,30.8,20.4,29.52,North,5,0.9,2.3,65,0.00,CLR,SCT,0.00,WeatherDisplay:10.37,2013-03-27 07:30:00,
2013-03-27 03:35:00,30.7,20.7,29.52,NW,313,0.3,3.5,66,0.00,CLR,SCT,0.00,WeatherDisplay:10.37,2013-03-27 07:35:00,
2013-03-27 03:40:00,30.7,20.7,29.52,North,10,0.1,1.1,66,0.00,CLR,SCT,0.00,WeatherDisplay:10.37,2013-03-27 07:40:00,
2013-03-27 03:45:00,30.6,20.6,29.52,NNE,17,0.7,2.3,66,0.00,CLR,SCT,0.00,WeatherDisplay:10.37,2013-03-27 07:45:00,
2013-03-27 03:50:00,30.6,20.6,29.52,NNW,328,1.0,3.5,66,0.00,CLR,SCT,0.00,WeatherDisplay:10.37,2013-03-27 07:50:00,
2013-03-27 03:55:00,30.6,20.6,29.52,NNW,339,1.8,3.5,66,0.00,CLR,SCT,0.00,WeatherDisplay:10.37,2013-03-27 07:55:00,
2013-03-27 04:00:00,30.7,20.7,29.52,NW,313,0.7,1.1,66,0.00,CLR,SCT,0.00,WeatherDisplay:10.37,2013-03-27 08:00:00,
2013-03-27 04:05:00,30.7,20.7,29.52,NNW,346,1.0,2.3,66,0.00,CLR,SCT,0.00,WeatherDisplay:10.37,2013-03-27 08:05:00,
2013-03-27 04:10:00,30.7,20.7,29.52,NNW,344,0.7,2.0,66,0.00,CLR,SCT,0.00,WeatherDisplay:10.37,2013-03-27 08:10:00,
2013-03-27 04:15:00,30.7,20.7,29.52,North,355,0.7,2.3,66,0.00,CLR,SCT,0.00,WeatherDisplay:10.37,2013-03-27 08:15:00,
2013-03-27 04:20:00,30.7,20.7,29.52,NW,324,0.6,2.3,66,0.00,CLR,SCT,0.00,WeatherDisplay:10.37,2013-03-27 08:20:00,
2013-03-27 04:25:00,30.7,20.3,29.52,NW,324,0.6,2.3,65,0.00,CLR,SCT,0.00,WeatherDisplay:10.37,2013-03-27 08:25:00,
2013-03-27 04:30:00,30.7,20.7,29.52,NNW,329,0.6,2.0,66,0.00,CLR,SCT,0.00,WeatherDisplay:10.37,2013-03-27 08:30:00,
2013-03-27 04:35:00,30.6,20.2,29.52,NW,315,0.2,1.1,65,0.00,CLR,SCT,0.00,WeatherDisplay:10.37,2013-03-27 08:35:00,
2013-03-27 04:40:00,30.6,20.2,29.51,NW,315,0.7,2.3,65,0.00,CLR,SCT,0.00,WeatherDisplay:10.37,2013-03-27 08:40:00,
2013-03-27 04:45:00,30.6,20.2,29.52,NW,316,0.0,1.1,65,0.00,CLR,SCT,0.00,WeatherDisplay:10.37,2013-03-27 08:45:00,
2013-03-27 04:50:00,30.5,20.1,29.52,NW,316,0.0,1.1,65,0.00,CLR,SCT,0.00,WeatherDisplay:10.37,2013-03-27 08:50:00,
2013-03-27 04:55:00,30.3,20.3,29.51,NW,316,0.4,3.5,66,0.00,CLR,SCT,0.00,WeatherDisplay:10.37,2013-03-27 08:55:00,
2013-03-27 05:00:00,30.2,20.2,29.52,NW,316,0.5,1.1,66,0.00,CLR,SCT,0.00,WeatherDisplay:10.37,2013-03-27 09:00:00,
2013-03-27 05:05:00,30.2,20.2,29.51,NW,316,0.9,1.1,66,0.00,CLR,SCT,0.00,WeatherDisplay:10.37,2013-03-27 09:05:00,
2013-03-27 05:10:00,30.3,20.3,29.52,NW,316,0.5,2.0,66,0.00,CLR,SCT,0.00,WeatherDisplay:10.37,2013-03-27 09:10:00,
2013-03-27 05:15:00,30.3,20.3,29.52,NW,316,0.7,2.3,66,0.00,CLR,SCT,0.00,WeatherDisplay:10.37,2013-03-27 09:15:00,
2013-03-27 05:20:00,30.3,20.3,29.52,NW,316,0.0,1.1,66,0.00,CLR,SCT,0.00,WeatherDisplay:10.37,2013-03-27 09:20:00,
2013-03-27 05:25:00,30.2,20.2,29.52,NW,316,0.8,1.1,66,0.00,CLR,SCT,0.00,WeatherDisplay:10.37,2013-03-27 09:25:00,
2013-03-27 05:30:00,30.3,20.3,29.52,NW,316,0.0,0.0,66,0.00,CLR,SCT,0.00,WeatherDisplay:10.37,2013-03-27 09:30:00,
2013-03-27 05:35:00,30.3,20.3,29.52,NW,316,0.0,0.0,66,0.00,CLR,SCT,0.00,WeatherDisplay:10.37,2013-03-27 09:35:00,
2013-03-27 05:40:00,30.3,20.3,29.52,NW,316,0.0,0.0,66,0.00,CLR,SCT,0.00,WeatherDisplay:10.37,2013-03-27 09:40:00,
2013-03-27 05:45:00,30.2,20.2,29.52,NW,316,0.0,0.0,66,0.00,CLR,SCT,0.00,WeatherDisplay:10.37,2013-03-27 09:45:00,
2013-03-27 05:50:00,30.1,20.1,29.52,NW,316,0.0,0.0,66,0.00,CLR,SCT,0.00,WeatherDisplay:10.37,2013-03-27 09:50:00,
2013-03-27 05:55:00,30.0,20.0,29.53,NW,316,0.0,0.0,66,0.00,CLR,SCT,0.00,WeatherDisplay:10.37,2013-03-27 09:55:00,
2013-03-27 06:00:00,29.9,20.3,29.52,NW,316,0.0,0.0,67,0.00,CLR,SCT,0.00,WeatherDisplay:10.37,2013-03-27 10:00:00,
2013-03-27 06:05:00,29.8,20.2,29.53,NW,316,0.0,0.0,67,0.00,CLR,SCT,0.00,WeatherDisplay:10.37,2013-03-27 10:05:00,
2013-03-27 06:10:00,29.7,20.1,29.53,NW,316,0.0,0.0,67,0.00,CLR,SCT,0.00,WeatherDisplay:10.37,2013-03-27 10:10:00,
2013-03-27 06:15:00,29.7,20.4,29.53,NW,316,0.0,0.0,68,0.00,CLR,SCT,0.00,WeatherDisplay:10.37,2013-03-27 10:15:00,
2013-03-27 06:20:00,29.7,20.4,29.53,NW,316,0.0,1.1,68,0.00,CLR,SCT,0.00,WeatherDisplay:10.37,2013-03-27 10:20:00,
2013-03-27 06:25:00,29.7,20.4,29.53,NW,316,0.0,0.0,68,0.00,CLR,SCT,0.00,WeatherDisplay:10.37,2013-03-27 10:25:00,
2013-03-27 06:30:00,29.7,20.4,29.54,NW,316,0.0,0.0,68,0.00,CLR,SCT,0.00,WeatherDisplay:10.37,2013-03-27 10:30:00,
2013-03-27 06:35:00,29.8,20.5,29.54,NW,316,0.5,1.1,68,0.00,CLR,SCT,0.00,WeatherDisplay:10.37,2013-03-27 10:35:00,
2013-03-27 06:40:00,29.9,20.6,29.54,NW,316,0.0,0.0,68,0.00,CLR,SCT,0.00,WeatherDisplay:10.37,2013-03-27 10:40:00,
2013-03-27 06:45:00,29.9,20.6,29.54,NW,316,0.4,1.1,68,0.00,CLR,SCT,0.00,WeatherDisplay:10.37,2013-03-27 10:45:00,
2013-03-27 06:50:00,29.9,20.6,29.54,NW,316,0.1,0.0,68,0.00,CLR,SCT,0.00,WeatherDisplay:10.37,2013-03-27 10:50:00,
2013-03-27 06:55:00,30.0,20.7,29.54,NW,316,0.0,0.0,68,0.00,CLR,SCT,0.00,WeatherDisplay:10.37,2013-03-27 10:55:00,
2013-03-27 07:00:00,29.9,20.6,29.55,NW,316,0.0,0.0,68,0.00,CLR,SCT,0.00,WeatherDisplay:10.37,2013-03-27 11:00:00,
2013-03-27 07:05:00,30.0,20.7,29.55,NW,316,0.0,0.0,68,0.00,CLR,SCT,0.00,WeatherDisplay:10.37,2013-03-27 11:05:00,
2013-03-27 07:10:00,30.0,20.7,29.55,NW,316,0.0,0.0,68,0.00,CLR,SCT,0.00,WeatherDisplay:10.37,2013-03-27 11:10:00,
2013-03-27 07:15:00,29.7,20.8,29.55,NW,316,0.0,0.0,69,0.00,CLR,SCT,0.00,WeatherDisplay:10.37,2013-03-27 11:15:00,
2013-03-27 07:20:00,29.5,20.6,29.55,NW,316,0.1,1.1,69,0.00,CLR,SCT,0.00,WeatherDisplay:10.37,2013-03-27 11:20:00,
2013-03-27 07:25:00,29.5,20.9,29.55,NNW,336,0.4,1.1,70,0.00,CLR,SCT,0.00,WeatherDisplay:10.37,2013-03-27 11:25:00,
2013-03-27 07:30:00,29.6,20.7,29.55,NNW,336,0.6,2.3,69,0.00,CLR,SCT,0.00,WeatherDisplay:10.37,2013-03-27 11:30:00,
2013-03-27 07:35:00,29.7,20.8,29.56,NNW,336,0.0,1.1,69,0.00,CLR,SCT,0.00,WeatherDisplay:10.37,2013-03-27 11:35:00,
2013-03-27 07:40:00,30.0,21.1,29.56,NW,318,1.5,3.5,69,0.00,CLR,SCT,0.00,WeatherDisplay:10.37,2013-03-27 11:40:00,
2013-03-27 07:45:00,30.5,21.5,29.56,NW,318,0.7,1.1,69,0.00,CLR,SCT,0.00,WeatherDisplay:10.37,2013-03-27 11:45:00,
2013-03-27 07:50:00,30.7,21.4,29.56,NW,318,0.5,1.1,68,0.00,CLR,SCT,0.00,WeatherDisplay:10.37,2013-03-27 11:50:00,
2013-03-27 07:55:00,30.9,21.2,29.56,NW,318,1.2,2.3,67,0.00,CLR,SCT,0.00,WeatherDisplay:10.37,2013-03-27 11:55:00,
2013-03-27 08:00:00,31.2,21.5,29.56,NW,319,0.6,1.1,67,0.00,CLR,SCT,0.00,WeatherDisplay:10.37,2013-03-27 12:00:00,
2013-03-27 08:05:00,31.5,22.1,29.56,NNW,332,0.7,2.3,68,0.00,CLR,SCT,0.00,WeatherDisplay:10.37,2013-03-27 12:05:00,
2013-03-27 08:10:00,31.6,21.9,29.56,NNW,332,1.2,2.3,67,0.00,CLR,SCT,0.00,WeatherDisplay:10.37,2013-03-27 12:10:00,
2013-03-27 08:15:00,32.0,22.3,29.56,NNW,332,1.0,2.3,67,0.00,CLR,SCT,0.00,WeatherDisplay:10.37,2013-03-27 12:15:00,
2013-03-27 08:20:00,32.2,22.5,29.56,NNW,332,0.8,2.3,67,0.00,CLR,SCT,0.00,WeatherDisplay:10.37,2013-03-27 12:20:00,
2013-03-27 08:25:00,32.6,22.8,29.56,NNW,330,1.4,3.0,67,0.00,CLR,SCT,0.00,WeatherDisplay:10.37,2013-03-27 12:25:00,
2013-03-27 08:30:00,32.9,23.1,29.56,NNW,347,1.1,2.3,67,0.00,CLR,SCT,0.00,WeatherDisplay:10.37,2013-03-27 12:30:00,
2013-03-27 08:35:00,33.1,23.3,29.57,WNW,302,0.3,1.1,67,0.00,CLR,SCT,0.00,WeatherDisplay:10.37,2013-03-27 12:35:00,
2013-03-27 08:40:00,33.3,22.8,29.56,WNW,302,0.1,2.3,65,0.00,CLR,SCT,0.00,WeatherDisplay:10.37,2013-03-27 12:40:00,
2013-03-27 08:45:00,33.6,23.1,29.57,WNW,302,0.6,1.1,65,0.00,CLR,SCT,0.00,WeatherDisplay:10.37,2013-03-27 12:45:00,
2013-03-27 08:50:00,33.7,23.2,29.57,WNW,295,0.0,1.1,65,0.00,CLR,SCT,0.00,WeatherDisplay:10.37,2013-03-27 12:50:00,
2013-03-27 08:55:00,34.1,23.6,29.57,WNW,295,0.7,2.3,65,0.00,CLR,SCT,0.00,WeatherDisplay:10.37,2013-03-27 12:55:00,
2013-03-27 09:00:00,34.3,23.4,29.57,NW,323,2.0,3.5,64,0.00,CLR,SCT,0.00,WeatherDisplay:10.37,2013-03-27 13:00:00,
2013-03-27 09:05:00,34.7,24.1,29.57,NW,323,0.6,2.3,65,0.00,CLR,SCT,0.00,WeatherDisplay:10.37,2013-03-27 13:05:00,
2013-03-27 09:10:00,35.2,24.2,29.57,WNW,293,1.9,6.9,64,0.00,CLR,SCT,0.00,WeatherDisplay:10.37,2013-03-27 13:10:00,
2013-03-27 09:15:00,35.9,24.9,29.56,West,272,4.1,5.0,64,0.00,CLR,SCT,0.00,WeatherDisplay:10.37,2013-03-27 13:15:00,
2013-03-27 09:20:00,36.5,24.7,29.56,WNW,294,1.8,4.0,62,0.00,CLR,SCT,0.00,WeatherDisplay:10.37,2013-03-27 13:20:00,
2013-03-27 09:25:00,37.2,25.0,29.56,West,261,4.4,5.8,61,0.00,CLR,SCT,0.00,WeatherDisplay:10.37,2013-03-27 13:25:00,
2013-03-27 09:30:00,37.5,25.3,29.56,West,266,2.6,5.8,61,0.00,CLR,SCT,0.00,WeatherDisplay:10.37,2013-03-27 13:30:00,
2013-03-27 09:35:00,37.3,24.3,29.56,WNW,293,3.2,4.0,59,0.00,CLR,SCT,0.00,WeatherDisplay:10.37,2013-03-27 13:35:00,
2013-03-27 09:40:00,37.9,24.8,29.56,WNW,298,1.4,2.3,59,0.00,CLR,SCT,0.00,WeatherDisplay:10.37,2013-03-27 13:40:00,
2013-03-27 09:45:00,38.5,25.0,29.56,WNW,287,2.4,3.5,58,0.00,CLR,SCT,0.00,WeatherDisplay:10.37,2013-03-27 13:45:00,
2013-03-27 09:50:00,38.7,25.2,29.56,WNW,302,2.8,4.6,58,0.00,CLR,SCT,0.00,WeatherDisplay:10.37,2013-03-27 13:50:00,
2013-03-27 09:55:00,39.4,26.2,29.56,NNW,342,2.0,3.5,59,0.00,CLR,SCT,0.00,WeatherDisplay:10.37,2013-03-27 13:55:00,
2013-03-27 10:00:00,39.7,25.7,29.56,NNW,338,1.4,3.5,57,0.00,CLR,SCT,0.00,WeatherDisplay:10.37,2013-03-27 14:00:00,
2013-03-27 10:05:00,39.4,24.6,29.56,West,277,2.5,4.6,55,0.00,CLR,SCT,0.00,WeatherDisplay:10.37,2013-03-27 14:05:00,
2013-03-27 10:10:00,40.1,25.6,29.56,WSW,256,2.1,4.6,56,0.00,CLR,SCT,0.00,WeatherDisplay:10.37,2013-03-27 14:10:00,
2013-03-27 10:15:00,40.4,25.9,29.56,NW,309,2.9,4.6,56,0.00,CLR,SCT,0.00,WeatherDisplay:10.37,2013-03-27 14:15:00,
2013-03-27 10:20:00,40.9,26.8,29.56,ESE,122,2.3,3.5,57,0.00,CLR,SCT,0.00,WeatherDisplay:10.37,2013-03-27 14:20:00,
2013-03-27 10:25:00,41.3,25.4,29.56,NW,306,4.3,4.6,53,0.00,CLR,SCT,0.00,WeatherDisplay:10.37,2013-03-27 14:25:00,
2013-03-27 10:30:00,41.2,25.8,29.56,WNW,286,3.5,4.6,54,0.00,CLR,SCT,0.00,WeatherDisplay:10.37,2013-03-27 14:30:00,
2013-03-27 10:35:00,41.5,26.1,29.56,WNW,286,1.4,4.6,54,0.00,CLR,SCT,0.00,WeatherDisplay:10.37,2013-03-27 14:35:00,
2013-03-27 10:40:00,42.2,26.7,29.56,NW,319,2.4,3.5,54,0.00,CLR,SCT,0.00,WeatherDisplay:10.37,2013-03-27 14:40:00,
2013-03-27 10:45:00,42.9,26.0,29.56,NW,309,3.8,5.8,51,0.00,CLR,SCT,0.00,WeatherDisplay:10.37,2013-03-27 14:45:00,
2013-03-27 10:50:00,43.4,26.5,29.56,NW,304,1.2,3.5,51,0.00,CLR,SCT,0.00,WeatherDisplay:10.37,2013-03-27 14:50:00,
2013-03-27 10:55:00,43.7,26.3,29.56,West,266,2.2,5.8,50,0.00,CLR,SCT,0.00,WeatherDisplay:10.37,2013-03-27 14:55:00,
2013-03-27 11:00:00,43.5,26.1,29.55,NW,306,2.6,4.6,50,0.00,CLR,SCT,0.00,WeatherDisplay:10.37,2013-03-27 15:00:00,
2013-03-27 11:05:00,44.1,27.1,29.55,NW,313,3.7,5.0,51,0.00,CLR,SCT,0.00,WeatherDisplay:10.37,2013-03-27 15:05:00,
2013-03-27 11:10:00,43.8,26.3,29.55,WNW,290,5.8,6.9,50,0.00,CLR,SCT,0.00,WeatherDisplay:10.37,2013-03-27 15:10:00,
2013-03-27 11:15:00,44.0,27.0,29.55,NW,304,3.6,4.6,51,0.00,CLR,SCT,0.00,WeatherDisplay:10.37,2013-03-27 15:15:00,
2013-03-27 11:20:00,44.2,26.7,29.55,West,277,2.0,4.6,50,0.00,CLR,SCT,0.00,WeatherDisplay:10.37,2013-03-27 15:20:00,
2013-03-27 11:25:00,45.7,27.1,29.55,West,277,4.6,7.0,48,0.00,CLR,SCT,0.00,WeatherDisplay:10.37,2013-03-27 15:25:00,
2013-03-27 11:30:00,45.4,25.8,29.55,WNW,294,3.0,5.8,46,0.00,CLR,SCT,0.00,WeatherDisplay:10.37,2013-03-27 15:30:00,
2013-03-27 11:35:00,45.2,25.6,29.55,West,261,4.1,5.8,46,0.00,CLR,SCT,0.00,WeatherDisplay:10.37,2013-03-27 15:35:00,
2013-03-27 11:40:00,46.0,26.9,29.55,NW,310,1.8,4.6,47,0.00,CLR,SCT,0.00,WeatherDisplay:10.37,2013-03-27 15:40:00,
2013-03-27 11:45:00,46.8,26.6,29.55,WNW,300,3.4,5.8,45,0.00,CLR,SCT,0.00,WeatherDisplay:10.37,2013-03-27 15:45:00,
2013-03-27 11:50:00,46.1,24.8,29.55,West,263,2.2,5.0,43,0.00,CLR,SCT,0.00,WeatherDisplay:10.37,2013-03-27 15:50:00,
2013-03-27 11:55:00,46.4,25.6,29.54,NNW,344,3.1,4.0,44,0.00,CLR,SCT,0.00,WeatherDisplay:10.37,2013-03-27 15:55:00,
2013-03-27 12:00:00,46.9,25.5,29.54,West,259,4.4,5.8,43,0.00,CLR,SCT,0.00,WeatherDisplay:10.37,2013-03-27 16:00:00,
2013-03-27 12:05:00,46.7,25.9,29.54,NW,309,4.4,6.9,44,0.00,CLR,SCT,0.00,WeatherDisplay:10.37,2013-03-27 16:05:00,
2013-03-27 12:10:00,46.0,25.3,29.55,WNW,295,4.1,6.0,44,0.00,CLR,SCT,0.00,WeatherDisplay:10.37,2013-03-27 16:10:00,
2013-03-27 12:15:00,46.1,25.4,29.54,NNW,336,4.6,5.0,44,0.00,CLR,SCT,0.00,WeatherDisplay:10.37,2013-03-27 16:15:00,
2013-03-27 12:20:00,45.7,24.5,29.54,WNW,296,3.2,9.2,43,0.00,CLR,SCT,0.00,WeatherDisplay:10.37,2013-03-27 16:20:00,
2013-03-27 12:25:00,46.4,25.6,29.54,WNW,299,3.9,4.6,44,0.00,CLR,SCT,0.00,WeatherDisplay:10.37,2013-03-27 16:25:00,
2013-03-27 12:30:00,46.7,24.8,29.54,SW,231,4.7,6.9,42,0.00,CLR,SCT,0.00,WeatherDisplay:10.37,2013-03-27 16:30:00,
2013-03-27 12:35:00,47.0,24.5,29.54,WSW,247,5.5,10.4,41,0.00,CLR,SCT,0.00,WeatherDisplay:10.37,2013-03-27 16:35:00,
2013-03-27 12:40:00,47.0,24.5,29.53,West,279,5.7,6.9,41,0.00,CLR,SCT,0.00,WeatherDisplay:10.37,2013-03-27 16:40:00,
2013-03-27 12:45:00,46.8,24.9,29.54,WNW,282,2.6,5.0,42,0.00,CLR,SCT,0.00,WeatherDisplay:10.37,2013-03-27 16:45:00,
2013-03-27 12:50:00,47.1,25.7,29.53,WSW,252,4.5,9.2,43,0.00,CLR,SCT,0.00,WeatherDisplay:10.37,2013-03-27 16:50:00,
2013-03-27 12:55:00,48.2,25.6,29.53,NW,321,4.0,8.1,41,0.00,CLR,SCT,0.00,WeatherDisplay:10.37,2013-03-27 16:55:00,
2013-03-27 13:00:00,47.1,24.0,29.53,WSW,258,1.5,4.6,40,0.00,CLR,SCT,0.00,WeatherDisplay:10.37,2013-03-27 17:00:00,
2013-03-27 13:05:00,47.4,24.9,29.53,WNW,300,5.1,8.1,41,0.00,CLR,SCT,0.00,WeatherDisplay:10.37,2013-03-27 17:05:00,
2013-03-27 13:10:00,48.0,22.9,29.53,NW,308,4.2,11.5,37,0.00,CLR,SCT,0.00,WeatherDisplay:10.37,2013-03-27 17:10:00,
2013-03-27 13:15:00,48.2,23.7,29.53,WSW,257,4.5,5.8,38,0.00,CLR,SCT,0.00,WeatherDisplay:10.37,2013-03-27 17:15:00,
2013-03-27 13:20:00,48.5,25.8,29.53,NW,323,5.2,10.4,41,0.00,CLR,SCT,0.00,WeatherDisplay:10.37,2013-03-27 17:20:00,
2013-03-27 13:25:00,49.5,24.9,29.52,WNW,299,5.2,6.9,38,0.00,CLR,SCT,0.00,WeatherDisplay:10.37,2013-03-27 17:25:00,
2013-03-27 13:30:00,49.0,22.5,29.52,WNW,294,4.7,8.1,35,0.00,CLR,SCT,0.00,WeatherDisplay:10.37,2013-03-27 17:30:00,
2013-03-27 13:35:00,48.7,22.9,29.53,NW,309,6.3,9.2,36,0.00,CLR,SCT,0.00,WeatherDisplay:10.37,2013-03-27 17:35:00,
2013-03-27 13:40:00,48.4,23.3,29.52,WNW,284,4.2,5.8,37,0.00,CLR,SCT,0.00,WeatherDisplay:10.37,2013-03-27 17:40:00,
2013-03-27 13:45:00,48.5,24.0,29.52,WNW,298,5.1,8.1,38,0.00,CLR,SCT,0.00,WeatherDisplay:10.37,2013-03-27 17:45:00,
2013-03-27 13:50:00,50.4,24.4,29.52,NNW,330,5.1,10.4,36,0.00,CLR,SCT,0.00,WeatherDisplay:10.37,2013-03-27 17:50:00,
2013-03-27 13:55:00,50.3,23.0,29.52,NNW,338,5.3,6.9,34,0.00,CLR,SCT,0.00,WeatherDisplay:10.37,2013-03-27 17:55:00,
2013-03-27 14:00:00,49.4,21.5,29.52,North,355,6.6,16.1,33,0.00,CLR,SCT,0.00,WeatherDisplay:10.37,2013-03-27 18:00:00,
2013-03-27 14:05:00,48.3,23.2,29.52,NW,315,4.0,8.1,37,0.00,CLR,SCT,0.00,WeatherDisplay:10.37,2013-03-27 18:05:00,
2013-03-27 14:10:00,48.3,23.8,29.52,WNW,297,3.2,6.0,38,0.00,CLR,SCT,0.00,WeatherDisplay:10.37,2013-03-27 18:10:00,
2013-03-27 14:15:00,48.6,24.1,29.51,WNW,292,2.8,6.9,38,0.00,CLR,SCT,0.00,WeatherDisplay:10.37,2013-03-27 18:15:00,
2013-03-27 14:20:00,50.0,23.4,29.51,WNW,300,6.8,9.2,35,0.00,CLR,SCT,0.00,WeatherDisplay:10.37,2013-03-27 18:20:00,
2013-03-27 14:25:00,50.3,24.3,29.51,NW,311,6.3,9.2,36,0.00,CLR,SCT,0.00,WeatherDisplay:10.37,2013-03-27 18:25:00,
2013-03-27 14:30:00,50.6,21.8,29.51,NW,307,4.7,8.1,32,0.00,CLR,SCT,0.00,WeatherDisplay:10.37,2013-03-27 18:30:00,
2013-03-27 14:35:00,50.9,22.8,29.51,WNW,290,8.4,12.7,33,0.00,CLR,SCT,0.00,WeatherDisplay:10.37,2013-03-27 18:35:00,
2013-03-27 14:40:00,47.7,23.9,29.52,North,360,7.3,11.5,39,0.00,CLR,SCT,0.00,WeatherDisplay:10.37,2013-03-27 18:40:00,
2013-03-27 14:45:00,46.0,25.3,29.52,NW,308,4.6,9.2,44,0.00,CLR,SCT,0.00,WeatherDisplay:10.37,2013-03-27 18:45:00,
2013-03-27 14:50:00,45.0,26.0,29.53,WNW,294,5.1,11.5,47,0.00,CLR,SCT,0.00,WeatherDisplay:10.37,2013-03-27 18:50:00,
2013-03-27 14:55:00,44.7,25.7,29.53,NW,316,5.3,9.2,47,0.00,CLR,SCT,0.00,WeatherDisplay:10.37,2013-03-27 18:55:00,
2013-03-27 15:00:00,44.4,26.4,29.53,West,279,7.3,12.7,49,0.00,CLR,SCT,0.00,WeatherDisplay:10.37,2013-03-27 19:00:00,
2013-03-27 15:05:00,43.8,27.3,29.53,WNW,290,2.2,4.0,52,0.00,CLR,SCT,0.00,WeatherDisplay:10.37,2013-03-27 19:05:00,
2013-03-27 15:10:00,44.4,25.9,29.52,North,5,2.7,4.6,48,0.00,CLR,SCT,0.00,WeatherDisplay:10.37,2013-03-27 19:10:00,
2013-03-27 15:15:00,45.9,24.6,29.52,NW,306,2.9,4.0,43,0.00,CLR,SCT,0.00,WeatherDisplay:10.37,2013-03-27 19:15:00,
2013-03-27 15:20:00,47.8,25.8,29.52,West,269,5.2,5.8,42,0.00,CLR,SCT,0.00,WeatherDisplay:10.37,2013-03-27 19:20:00,
2013-03-27 15:25:00,48.3,25.7,29.52,NW,324,6.7,9.2,41,0.00,CLR,SCT,0.00,WeatherDisplay:10.37,2013-03-27 19:25:00,
2013-03-27 15:30:00,47.2,25.3,29.52,WNW,302,5.4,6.9,42,0.00,CLR,SCT,0.00,WeatherDisplay:10.37,2013-03-27 19:30:00,
2013-03-27 15:35:00,46.5,25.2,29.52,NW,321,5.3,8.1,43,0.00,CLR,SCT,0.00,WeatherDisplay:10.37,2013-03-27 19:35:00,
2013-03-27 15:40:00,45.9,25.7,29.52,WNW,294,7.8,11.5,45,0.00,CLR,SCT,0.00,WeatherDisplay:10.37,2013-03-27 19:40:00,
2013-03-27 15:45:00,45.0,25.4,29.53,NNW,333,4.8,10.4,46,0.00,CLR,SCT,0.00,WeatherDisplay:10.37,2013-03-27 19:45:00,
2013-03-27 15:50:00,44.7,25.7,29.53,NW,321,5.3,9.2,47,0.00,CLR,SCT,0.00,WeatherDisplay:10.37,2013-03-27 19:50:00,
2013-03-27 15:55:00,44.6,25.6,29.53,NW,306,4.4,5.8,47,0.00,CLR,SCT,0.00,WeatherDisplay:10.37,2013-03-27 19:55:00,
2013-03-27 16:00:00,44.8,25.8,29.53,WNW,294,3.6,6.9,47,0.00,CLR,SCT,0.00,WeatherDisplay:10.37,2013-03-27 20:00:00,
2013-03-27 16:05:00,45.3,25.2,29.53,West,278,3.6,4.6,45,0.00,CLR,SCT,0.00,WeatherDisplay:10.37,2013-03-27 20:05:00,
2013-03-27 16:10:00,45.9,25.7,29.53,North,360,4.8,5.8,45,0.00,CLR,SCT,0.00,WeatherDisplay:10.37,2013-03-27 20:10:00,
2013-03-27 16:15:00,46.9,27.2,29.53,NW,310,2.2,2.3,46,0.00,CLR,SCT,0.00,WeatherDisplay:10.37,2013-03-27 20:15:00,
2013-03-27 16:20:00,46.5,24.6,29.53,West,268,1.9,5.8,42,0.00,CLR,SCT,0.00,WeatherDisplay:10.37,2013-03-27 20:20:00,
2013-03-27 16:25:00,46.8,24.9,29.52,WNW,301,3.3,6.9,42,0.00,CLR,SCT,0.00,WeatherDisplay:10.37,2013-03-27 20:25:00,
2013-03-27 16:30:00,47.4,26.0,29.52,NNW,333,6.2,6.2,43,0.00,CLR,SCT,0.00,WeatherDisplay:10.37,2013-03-27 20:30:00,
2013-03-27 16:35:00,48.1,25.5,29.52,NNW,329,4.8,5.8,41,0.00,CLR,SCT,0.00,WeatherDisplay:10.37,2013-03-27 20:35:00,
2013-03-27 16:40:00,47.8,25.2,29.53,WNW,297,2.9,4.6,41,0.00,CLR,SCT,0.00,WeatherDisplay:10.37,2013-03-27 20:40:00,
2013-03-27 16:45:00,47.4,24.3,29.53,WNW,294,3.2,5.8,40,0.00,CLR,SCT,0.00,WeatherDisplay:10.37,2013-03-27 20:45:00,
2013-03-27 16:50:00,47.0,23.9,29.53,NW,308,6.7,8.1,40,0.00,CLR,SCT,0.00,WeatherDisplay:10.37,2013-03-27 20:50:00,
2013-03-27 16:55:00,47.3,24.8,29.53,NW,319,3.9,8.1,41,0.00,CLR,SCT,0.00,WeatherDisplay:10.37,2013-03-27 20:55:00,
2013-03-27 17:00:00,47.1,23.4,29.53,West,271,5.4,9.2,39,0.00,CLR,SCT,0.00,WeatherDisplay:10.37,2013-03-27 21:00:00,
2013-03-27 17:05:00,46.9,23.2,29.53,WNW,297,4.1,7.0,39,0.00,CLR,SCT,0.00,WeatherDisplay:10.37,2013-03-27 21:05:00,
2013-03-27 17:10:00,47.0,23.9,29.53,WNW,293,4.3,9.2,40,0.00,CLR,SCT,0.00,WeatherDisplay:10.37,2013-03-27 21:10:00,
2013-03-27 17:15:00,46.3,23.3,29.53,WNW,288,6.5,10.4,40,0.00,CLR,SCT,0.00,WeatherDisplay:10.37,2013-03-27 21:15:00,
2013-03-27 17:20:00,45.9,22.3,29.53,WNW,302,6.4,9.2,39,0.00,CLR,SCT,0.00,WeatherDisplay:10.37,2013-03-27 21:20:00,
2013-03-27 17:25:00,45.7,22.1,29.53,WSW,248,5.1,5.8,39,0.00,CLR,SCT,0.00,WeatherDisplay:10.37,2013-03-27 21:25:00,
2013-03-27 17:30:00,45.4,23.0,29.53,NW,309,1.4,4.0,41,0.00,CLR,SCT,0.00,WeatherDisplay:10.37,2013-03-27 21:30:00,
2013-03-27 17:35:00,45.4,22.5,29.53,NW,304,2.7,4.6,40,0.00,CLR,SCT,0.00,WeatherDisplay:10.37,2013-03-27 21:35:00,
2013-03-27 17:40:00,45.6,22.6,29.53,WNW,285,4.1,4.6,40,0.00,CLR,SCT,0.00,WeatherDisplay:10.37,2013-03-27 21:40:00,
2013-03-27 17:45:00,45.9,22.3,29.54,NW,316,2.8,8.1,39,0.00,CLR,SCT,0.00,WeatherDisplay:10.37,2013-03-27 21:45:00,
2013-03-27 17:50:00,46.1,22.5,29.54,NNW,329,3.2,5.0,39,0.00,CLR,SCT,0.00,WeatherDisplay:10.37,2013-03-27 21:50:00,
2013-03-27 17:55:00,45.9,21.7,29.54,NW,308,3.9,8.1,38,0.00,CLR,SCT,0.00,WeatherDisplay:10.37,2013-03-27 21:55:00,
2013-03-27 18:00:00,45.6,21.4,29.54,NW,304,5.5,6.9,38,0.00,CLR,SCT,0.00,WeatherDisplay:10.37,2013-03-27 22:00:00,
2013-03-27 18:05:00,45.2,22.3,29.54,NW,313,1.8,4.6,40,0.00,CLR,SCT,0.00,WeatherDisplay:10.37,2013-03-27 22:05:00,
2013-03-27 18:10:00,44.9,22.0,29.54,NW,309,2.6,4.6,40,0.00,CLR,SCT,0.00,WeatherDisplay:10.37,2013-03-27 22:10:00,
2013-03-27 18:15:00,44.8,23.1,29.54,WSW,255,2.3,3.5,42,0.00,CLR,SCT,0.00,WeatherDisplay:10.37,2013-03-27 22:15:00,
2013-03-27 18:20:00,44.9,22.6,29.54,NW,314,4.0,6.9,41,0.00,CLR,SCT,0.00,WeatherDisplay:10.37,2013-03-27 22:20:00,
2013-03-27 18:25:00,44.9,21.4,29.55,WNW,303,3.9,6.9,39,0.00,CLR,SCT,0.00,WeatherDisplay:10.37,2013-03-27 22:25:00,
2013-03-27 18:30:00,45.0,21.5,29.55,NW,322,1.5,3.5,39,0.00,CLR,SCT,0.00,WeatherDisplay:10.37,2013-03-27 22:30:00,
2013-03-27 18:35:00,44.8,21.9,29.55,WNW,293,1.4,4.6,40,0.00,CLR,SCT,0.00,WeatherDisplay:10.37,2013-03-27 22:35:00,
2013-03-27 18:40:00,44.7,21.2,29.55,NW,306,3.9,5.8,39,0.00,CLR,SCT,0.00,WeatherDisplay:10.37,2013-03-27 22:40:00,
2013-03-27 18:45:00,44.6,21.1,29.55,WNW,290,4.9,11.5,39,0.00,CLR,SCT,0.00,WeatherDisplay:10.37,2013-03-27 22:45:00,
2013-03-27 18:50:00,44.6,21.7,29.55,WNW,302,3.4,4.6,40,0.00,CLR,SCT,0.00,WeatherDisplay:10.37,2013-03-27 22:50:00,
2013-03-27 18:55:00,44.3,21.5,29.55,NW,311,4.0,5.8,40,0.00,CLR,SCT,0.00,WeatherDisplay:10.37,2013-03-27 22:55:00,
2013-03-27 19:00:00,44.2,22.5,29.55,NNW,329,0.8,2.3,42,0.00,CLR,SCT,0.00,WeatherDisplay:10.37,2013-03-27 23:00:00,
2013-03-27 19:05:00,43.9,21.1,29.56,WNW,286,4.1,5.8,40,0.00,CLR,SCT,0.00,WeatherDisplay:10.37,2013-03-27 23:05:00,
2013-03-27 19:10:00,44.0,21.2,29.56,WNW,300,5.3,8.1,40,0.00,CLR,SCT,0.00,WeatherDisplay:10.37,2013-03-27 23:10:00,
2013-03-27 19:15:00,44.1,20.7,29.56,West,269,2.7,4.6,39,0.00,CLR,SCT,0.00,WeatherDisplay:10.37,2013-03-27 23:15:00,
2013-03-27 19:20:00,44.3,20.3,29.56,NW,305,3.5,6.9,38,0.00,CLR,SCT,0.00,WeatherDisplay:10.37,2013-03-27 23:20:00,
2013-03-27 19:25:00,44.3,21.5,29.56,WNW,296,3.2,4.6,40,0.00,CLR,SCT,0.00,WeatherDisplay:10.37,2013-03-27 23:25:00,
2013-03-27 19:30:00,44.1,21.3,29.56,NW,304,1.0,3.5,40,0.00,CLR,SCT,0.00,WeatherDisplay:10.37,2013-03-27 23:30:00,
2013-03-27 19:35:00,44.0,21.2,29.57,NW,304,1.4,2.3,40,0.00,CLR,SCT,0.00,WeatherDisplay:10.37,2013-03-27 23:35:00,
2013-03-27 19:40:00,43.9,21.7,29.57,NW,304,1.1,3.5,41,0.00,CLR,SCT,0.00,WeatherDisplay:10.37,2013-03-27 23:40:00,
2013-03-27 19:45:00,43.8,21.0,29.57,NW,321,4.7,7.0,40,0.00,CLR,SCT,0.00,WeatherDisplay:10.37,2013-03-27 23:45:00,
2013-03-27 19:50:00,43.8,21.6,29.57,NNW,344,1.5,2.3,41,0.00,CLR,SCT,0.00,WeatherDisplay:10.37,2013-03-27 23:50:00,
2013-03-27 19:55:00,43.6,22.0,29.57,NNW,344,1.7,2.3,42,0.00,CLR,SCT,0.00,WeatherDisplay:10.37,2013-03-27 23:55:00,
2013-03-27 20:00:00,43.2,22.2,29.57,NNW,344,0.6,1.1,43,0.00,CLR,SCT,0.00,WeatherDisplay:10.37,2013-03-28 00:00:00,
2013-03-27 20:05:00,42.8,22.9,29.58,NNW,333,1.8,5.0,45,0.00,CLR,SCT,0.00,WeatherDisplay:10.37,2013-03-28 00:05:00,
2013-03-27 20:10:00,42.5,23.7,29.58,WNW,302,3.4,5.8,47,0.00,CLR,SCT,0.00,WeatherDisplay:10.37,2013-03-28 00:10:00,
2013-03-27 20:15:00,42.4,24.1,29.58,NW,321,1.7,3.5,48,0.00,CLR,SCT,0.00,WeatherDisplay:10.37,2013-03-28 00:15:00,
2013-03-27 20:20:00,42.2,24.4,29.58,NNW,339,1.2,2.3,49,0.00,CLR,SCT,0.00,WeatherDisplay:10.37,2013-03-28 00:20:00,
2013-03-27 20:25:00,41.8,24.0,29.58,NNW,336,1.2,3.0,49,0.00,CLR,SCT,0.00,WeatherDisplay:10.37,2013-03-28 00:25:00,
2013-03-27 20:30:00,41.5,24.2,29.58,NW,306,2.3,5.8,50,0.00,CLR,SCT,0.00,WeatherDisplay:10.37,2013-03-28 00:30:00,
2013-03-27 20:35:00,41.3,24.5,29.58,NW,315,3.2,3.5,51,0.00,CLR,SCT,0.00,WeatherDisplay:10.37,2013-03-28 00:35:00,
2013-03-27 20:40:00,41.1,24.3,29.59,WNW,286,2.3,5.0,51,0.00,CLR,SCT,0.00,WeatherDisplay:10.37,2013-03-28 00:40:00,
2013-03-27 20:45:00,41.1,24.8,29.59,WNW,298,2.5,3.5,52,0.00,CLR,SCT,0.00,WeatherDisplay:10.37,2013-03-28 00:45:00,
2013-03-27 20:50:00,40.9,24.1,29.59,WNW,288,3.3,4.6,51,0.00,CLR,SCT,0.00,WeatherDisplay:10.37,2013-03-28 00:50:00,
2013-03-27 20:55:00,41.0,23.8,29.59,NW,309,4.2,5.8,50,0.00,CLR,SCT,0.00,WeatherDisplay:10.37,2013-03-28 00:55:00,
2013-03-27 21:00:00,41.0,23.8,29.59,NW,307,4.6,4.6,50,0.00,CLR,SCT,0.00,WeatherDisplay:10.37,2013-03-28 01:00:00,
2013-03-27 21:05:00,40.9,23.7,29.60,NW,305,2.5,8.1,50,0.00,CLR,SCT,0.00,WeatherDisplay:10.37,2013-03-28 01:05:00,
2013-03-27 21:10:00,40.7,23.5,29.60,WNW,300,2.2,6.9,50,0.00,CLR,SCT,0.00,WeatherDisplay:10.37,2013-03-28 01:10:00,
2013-03-27 21:15:00,40.5,23.8,29.60,NW,315,2.5,5.0,51,0.00,CLR,SCT,0.00,WeatherDisplay:10.37,2013-03-28 01:15:00,
2013-03-27 21:20:00,40.4,23.7,29.60,WNW,292,4.0,5.8,51,0.00,CLR,SCT,0.00,WeatherDisplay:10.37,2013-03-28 01:20:00,
2013-03-27 21:25:00,40.2,23.5,29.60,WNW,297,1.6,4.0,51,0.00,CLR,SCT,0.00,WeatherDisplay:10.37,2013-03-28 01:25:00,
2013-03-27 21:30:00,39.8,23.1,29.60,NW,317,3.6,5.8,51,0.00,CLR,SCT,0.00,WeatherDisplay:10.37,2013-03-28 01:30:00,
2013-03-27 21:35:00,39.8,23.1,29.60,NNW,338,5.6,8.1,51,0.00,CLR,SCT,0.00,WeatherDisplay:10.37,2013-03-28 01:35:00,
2013-03-27 21:40:00,39.8,23.6,29.60,NNW,336,4.8,8.1,52,0.00,CLR,SCT,0.00,WeatherDisplay:10.37,2013-03-28 01:40:00,
2013-03-27 21:45:00,39.9,23.7,29.60,NNW,329,3.8,8.1,52,0.00,CLR,SCT,0.00,WeatherDisplay:10.37,2013-03-28 01:45:00,
2013-03-27 21:50:00,39.9,23.7,29.61,NW,313,4.7,5.0,52,0.00,CLR,SCT,0.00,WeatherDisplay:10.37,2013-03-28 01:50:00,
2013-03-27 21:55:00,39.7,24.0,29.61,NW,319,2.6,4.6,53,0.00,CLR,SCT,0.00,WeatherDisplay:10.37,2013-03-28 01:55:00,
2013-03-27 22:00:00,39.5,23.8,29.61,NW,311,2.7,3.5,53,0.00,CLR,SCT,0.00,WeatherDisplay:10.37,2013-03-28 02:00:00,
2013-03-27 22:05:00,39.1,23.8,29.61,NW,315,2.7,3.5,54,0.00,CLR,SCT,0.00,WeatherDisplay:10.37,2013-03-28 02:05:00,
2013-03-27 22:10:00,38.9,24.1,29.61,NW,305,1.7,3.5,55,0.00,CLR,SCT,0.00,WeatherDisplay:10.37,2013-03-28 02:10:00,
2013-03-27 22:15:00,38.7,23.9,29.61,NW,304,2.7,4.6,55,0.00,CLR,SCT,0.00,WeatherDisplay:10.37,2013-03-28 02:15:00,
2013-03-27 22:20:00,38.7,23.9,29.61,WNW,298,3.5,4.6,55,0.00,CLR,SCT,0.00,WeatherDisplay:10.37,2013-03-28 02:20:00,
2013-03-27 22:25:00,38.5,24.1,29.60,WNW,301,3.9,9.2,56,0.00,CLR,SCT,0.00,WeatherDisplay:10.37,2013-03-28 02:25:00,
2013-03-27 22:30:00,38.8,24.4,29.61,WNW,302,3.8,5.0,56,0.00,CLR,SCT,0.00,WeatherDisplay:10.37,2013-03-28 02:30:00,
2013-03-27 22:35:00,38.9,24.5,29.60,West,269,3.4,5.8,56,0.00,CLR,SCT,0.00,WeatherDisplay:10.37,2013-03-28 02:35:00,
2013-03-27 22:40:00,38.9,24.5,29.60,WNW,299,4.1,11.5,56,0.00,CLR,SCT,0.00,WeatherDisplay:10.37,2013-03-28 02:40:00,
2013-03-27 22:45:00,38.5,24.6,29.60,WNW,302,4.2,8.1,57,0.00,CLR,SCT,0.00,WeatherDisplay:10.37,2013-03-28 02:45:00,
2013-03-27 22:50:00,38.4,24.9,29.61,WNW,303,4.8,5.8,58,0.00,CLR,SCT,0.00,WeatherDisplay:10.37,2013-03-28 02:50:00,
2013-03-27 22:55:00,38.4,24.9,29.60,WNW,300,4.5,5.8,58,0.00,CLR,SCT,0.00,WeatherDisplay:10.37,2013-03-28 02:55:00,
2013-03-27 23:00:00,38.7,25.2,29.60,NW,307,3.4,5.8,58,0.00,CLR,SCT,0.00,WeatherDisplay:10.37,2013-03-28 03:00:00,
2013-03-27 23:05:00,38.6,25.5,29.60,West,273,4.1,6.0,59,0.00,CLR,SCT,0.00,WeatherDisplay:10.37,2013-03-28 03:05:00,
2013-03-27 23:10:00,38.4,24.9,29.61,WNW,298,4.1,8.1,58,0.00,CLR,SCT,0.00,WeatherDisplay:10.37,2013-03-28 03:10:00,
2013-03-27 23:15:00,38.1,25.0,29.61,WNW,289,3.9,6.0,59,0.00,CLR,SCT,0.00,WeatherDisplay:10.37,2013-03-28 03:15:00,
2013-03-27 23:20:00,38.2,25.5,29.61,NW,315,5.1,6.9,60,0.00,CLR,SCT,0.00,WeatherDisplay:10.37,2013-03-28 03:20:00,
2013-03-27 23:25:00,38.1,25.4,29.61,WNW,290,2.9,5.8,60,0.00,CLR,SCT,0.00,WeatherDisplay:10.37,2013-03-28 03:25:00,
2013-03-27 23:30:00,38.1,25.8,29.61,WNW,296,4.9,8.1,61,0.00,CLR,SCT,0.00,WeatherDisplay:10.37,2013-03-28 03:30:00,
2013-03-27 23:35:00,37.9,25.6,29.61,NW,324,2.7,6.9,61,0.00,CLR,SCT,0.00,WeatherDisplay:10.37,2013-03-28 03:35:00,
2013-03-27 23:40:00,37.7,25.8,29.61,NNW,327,3.4,4.6,62,0.00,CLR,SCT,0.00,WeatherDisplay:10.37,2013-03-28 03:40:00,
2013-03-27 23:45:00,37.7,25.8,29.61,NNW,336,5.7,8.1,62,0.00,CLR,SCT,0.00,WeatherDisplay:10.37,2013-03-28 03:45:00,
2013-03-27 23:50:00,37.9,26.0,29.61,NNW,327,3.7,5.8,62,0.00,CLR,SCT,0.00,WeatherDisplay:10.37,2013-03-28 03:50:00,
2013-03-27 23:55:00,37.7,26.2,29.61,NW,316,4.5,5.8,63,0.00,CLR,SCT,0.00,WeatherDisplay:10.37,2013-03-28 03:55:00,